createdAt,value
2024-05-09T00:00:40.944Z,89.20
2024-05-09T00:03:10.265Z,89.40
2024-05-09T00:05:40.466Z,89.40
2024-05-09T00:08:09.445Z,89.00
2024-05-09T00:10:38.775Z,89.10
2024-05-09T00:13:08.004Z,89.10
2024-05-09T00:15:35.975Z,89.10
2024-05-09T00:18:05.379Z,89.50
2024-05-09T00:20:38.282Z,89.50
2024-05-09T00:23:09.367Z,89.80
2024-05-09T00:25:37.794Z,90.00
2024-05-09T00:28:05.233Z,90.30
2024-05-09T00:30:35.418Z,90.20
2024-05-09T00:33:05.881Z,90.30
2024-05-09T00:35:33.906Z,90.40
2024-05-09T00:38:01.105Z,90.70
2024-05-09T00:40:40.357Z,90.70
2024-05-09T00:43:11.626Z,90.70
2024-05-09T00:45:39.224Z,90.60
2024-05-09T00:48:08.587Z,90.60
2024-05-09T00:50:42.188Z,90.60
2024-05-09T00:53:14.901Z,90.60
2024-05-09T00:55:42.526Z,90.60
2024-05-09T00:58:12.418Z,90.60
2024-05-09T01:00:41.455Z,90.40
2024-05-09T01:03:11.969Z,90.30
2024-05-09T01:05:40.935Z,90.20
2024-05-09T01:08:10.808Z,90.60
2024-05-09T01:10:38.306Z,91.10
2024-05-09T01:13:06.713Z,91.00
2024-05-09T01:15:35.030Z,91.20
2024-05-09T01:18:12.120Z,91.40
2024-05-09T01:20:43.213Z,92.10
2024-05-09T01:23:14.769Z,92.40
2024-05-09T01:25:43.976Z,92.40
2024-05-09T01:28:11.035Z,92.50
2024-05-09T01:30:38.671Z,92.50
2024-05-09T01:33:08.690Z,92.30
2024-05-09T01:35:37.643Z,92.40
2024-05-09T01:38:05.109Z,92.30
2024-05-09T01:40:37.728Z,92.20
2024-05-09T01:43:08.274Z,91.70
2024-05-09T01:45:35.976Z,91.90
2024-05-09T01:48:03.624Z,91.50
2024-05-09T01:53:01.061Z,90.90
2024-05-09T01:55:28.071Z,91.00
2024-05-09T01:57:54.986Z,91.20
2024-05-09T02:00:33.792Z,91.60
2024-05-09T02:03:08.976Z,92.10
2024-05-09T02:05:36.348Z,92.50
2024-05-09T02:08:04.027Z,90.00
2024-05-09T02:10:32.974Z,91.00
2024-05-09T02:13:00.616Z,90.50
2024-05-09T02:15:27.705Z,91.30
2024-05-09T02:17:54.835Z,91.60
2024-05-09T02:20:30.463Z,92.10
2024-05-09T02:23:05.022Z,92.20
2024-05-09T02:25:32.673Z,92.30
2024-05-09T02:27:59.787Z,91.60
2024-05-09T02:30:36.578Z,91.60
2024-05-09T02:33:08.320Z,91.80
2024-05-09T02:35:35.984Z,91.70
2024-05-09T02:38:03.186Z,91.40
2024-05-09T02:40:36.669Z,91.90
2024-05-09T02:43:08.732Z,91.90
2024-05-09T02:45:36.832Z,92.10
2024-05-09T02:48:04.151Z,92.20
2024-05-09T02:50:37.837Z,91.70
2024-05-09T02:53:11.242Z,92.00
2024-05-09T02:55:38.985Z,92.00
2024-05-09T02:58:10.200Z,92.20
2024-05-09T03:00:40.699Z,92.50
2024-05-09T03:03:12.492Z,92.40
2024-05-09T03:05:41.857Z,92.30
2024-05-09T03:08:09.174Z,92.30
2024-05-09T03:10:38.441Z,92.30
2024-05-09T03:13:14.796Z,92.50
2024-05-09T03:15:43.514Z,92.20
2024-05-09T03:18:11.123Z,92.20
2024-05-09T03:20:39.352Z,91.90
2024-05-09T03:23:08.809Z,91.90
2024-05-09T03:25:36.872Z,92.30
2024-05-09T03:28:04.074Z,92.40
2024-05-09T03:30:39.709Z,91.50
2024-05-09T03:33:15.571Z,91.80
2024-05-09T03:35:46.811Z,91.70
2024-05-09T03:38:14.204Z,91.90
2024-05-09T03:40:45.565Z,92.10
2024-05-09T03:43:13.716Z,92.00
2024-05-09T03:45:40.760Z,92.40
2024-05-09T03:48:08.348Z,91.90
2024-05-09T03:50:36.565Z,92.00
2024-05-09T03:53:04.576Z,92.10
2024-05-09T03:55:31.614Z,91.60
2024-05-09T03:57:58.788Z,92.00
2024-05-09T04:00:34.223Z,92.20
2024-05-09T04:03:07.278Z,92.40
2024-05-09T04:05:36.774Z,92.50
2024-05-09T04:08:03.890Z,92.60
2024-05-09T04:10:33.943Z,91.80
2024-05-09T04:13:03.187Z,92.00
2024-05-09T04:15:30.566Z,91.90
2024-05-09T04:17:57.791Z,91.90
2024-05-09T04:20:35.802Z,91.40
2024-05-09T04:23:07.199Z,91.80
2024-05-09T04:25:34.997Z,91.90
2024-05-09T04:28:01.932Z,92.00
2024-05-09T04:30:36.776Z,91.60
2024-05-09T04:33:08.631Z,91.80
2024-05-09T04:35:37.603Z,92.20
2024-05-09T04:38:05.538Z,92.20
2024-05-09T04:40:35.703Z,92.40
2024-05-09T04:43:14.174Z,92.80
2024-05-09T04:45:41.515Z,93.00
2024-05-09T04:48:08.989Z,92.80
2024-05-09T04:50:38.716Z,92.50
2024-05-09T04:53:09.895Z,92.40
2024-05-09T04:55:38.341Z,92.40
2024-05-09T04:58:08.803Z,92.80
2024-05-09T05:00:38.659Z,93.00
2024-05-09T05:03:10.273Z,92.90
2024-05-09T05:05:42.512Z,93.30
2024-05-09T05:08:14.027Z,93.30
2024-05-09T05:10:42.023Z,93.20
2024-05-09T05:13:25.174Z,93.50
2024-05-09T05:15:57.436Z,93.30
2024-05-09T05:18:26.727Z,93.40
2024-05-09T05:20:55.773Z,93.10
2024-05-09T05:23:23.759Z,93.20
2024-05-09T05:25:55.055Z,93.20
2024-05-09T05:28:22.479Z,93.00
2024-05-09T05:30:49.502Z,92.70
2024-05-09T05:33:20.033Z,92.50
2024-05-09T05:35:47.422Z,92.70
2024-05-09T05:38:14.696Z,92.80
2024-05-09T05:40:41.797Z,92.60
2024-05-09T05:43:15.473Z,92.00
2024-05-09T05:45:42.380Z,92.00
2024-05-09T05:48:10.016Z,92.10
2024-05-09T05:50:38.380Z,91.60
2024-05-09T05:53:08.034Z,91.90
2024-05-09T05:55:40.089Z,91.80
2024-05-09T05:58:10.932Z,91.60
2024-05-09T06:00:40.043Z,91.60
2024-05-09T06:03:09.308Z,91.10
2024-05-09T06:05:39.810Z,90.10
2024-05-09T06:08:07.695Z,90.30
2024-05-09T06:10:38.890Z,90.10
2024-05-09T06:13:10.843Z,90.10
2024-05-09T06:15:38.051Z,90.20
2024-05-09T06:18:06.490Z,89.90
2024-05-09T06:20:36.603Z,88.80
2024-05-09T06:23:09.518Z,89.00
2024-05-09T06:25:37.160Z,89.00
2024-05-09T06:28:04.600Z,88.10
2024-05-09T06:30:40.287Z,88.20
2024-05-09T06:33:11.306Z,88.00
2024-05-09T06:35:40.535Z,86.50
2024-05-09T06:38:11.011Z,85.30
2024-05-09T06:40:42.377Z,85.10
2024-05-09T06:43:15.558Z,84.70
2024-05-09T06:45:45.010Z,84.40
2024-05-09T06:48:12.120Z,83.10
2024-05-09T06:50:40.368Z,82.30
2024-05-09T06:53:08.610Z,82.20
2024-05-09T06:55:36.997Z,81.10
2024-05-09T06:58:07.602Z,82.20
2024-05-09T07:00:39.263Z,82.10
2024-05-09T07:03:18.120Z,80.90
2024-05-09T07:05:48.073Z,81.70
2024-05-09T07:08:16.375Z,79.90
2024-05-09T07:10:43.649Z,78.90
2024-05-09T07:13:11.755Z,78.70
2024-05-09T07:15:39.667Z,78.60
2024-05-09T07:18:18.480Z,78.30
2024-05-09T07:20:47.595Z,77.10
2024-05-09T07:23:15.185Z,75.70
2024-05-09T07:25:42.970Z,75.00
2024-05-09T07:28:14.108Z,76.20
2024-05-09T07:30:41.482Z,74.50
2024-05-09T07:33:08.839Z,74.30
2024-05-09T07:35:36.061Z,71.50
2024-05-09T07:38:03.142Z,70.50
2024-05-09T07:40:35.854Z,71.20
2024-05-09T07:43:08.350Z,73.40
2024-05-09T07:52:33.063Z,69.70
2024-05-09T07:55:55.868Z,72.00
2024-05-09T07:58:27.500Z,69.50
2024-05-09T08:00:54.913Z,72.30
2024-05-09T08:03:22.693Z,69.70
2024-05-09T08:05:51.400Z,68.10
2024-05-09T08:08:18.357Z,68.20
2024-05-09T08:10:45.439Z,68.50
2024-05-09T08:13:12.541Z,66.70
2024-05-09T08:15:39.676Z,67.30
2024-05-09T08:18:12.133Z,67.50
2024-05-09T08:20:40.383Z,68.60
2024-05-09T08:23:07.432Z,68.40
2024-05-09T08:25:34.312Z,65.60
2024-05-09T08:28:01.391Z,65.10
2024-05-09T08:30:33.826Z,64.50
2024-05-09T08:33:05.865Z,64.30
2024-05-09T08:35:33.857Z,64.70
2024-05-09T08:38:05.195Z,65.70
2024-05-09T08:40:36.010Z,62.90
2024-05-09T08:43:12.287Z,63.30
2024-05-09T08:45:44.042Z,57.20
2024-05-09T08:48:15.130Z,60.00
2024-05-09T08:50:43.819Z,59.30
2024-05-09T08:53:11.498Z,61.50
2024-05-09T08:55:41.783Z,60.30
2024-05-09T08:58:17.134Z,61.90
2024-05-09T09:00:46.008Z,63.40
2024-05-09T09:03:17.542Z,61.60
2024-05-09T09:06:06.347Z,61.50
2024-05-09T09:08:33.271Z,64.10
2024-05-09T09:11:00.214Z,56.50
2024-05-09T09:13:27.605Z,57.50
2024-05-09T09:15:58.233Z,62.80
2024-05-09T09:18:33.041Z,65.90
2024-05-09T09:21:00.302Z,62.80
2024-05-09T09:23:30.613Z,60.70
2024-05-09T09:26:01.193Z,61.60
2024-05-09T09:28:28.391Z,60.70
2024-05-09T09:31:01.277Z,60.10
2024-05-09T09:33:31.388Z,56.50
2024-05-09T09:35:58.488Z,53.40
2024-05-09T09:38:30.060Z,57.40
2024-05-09T09:40:57.108Z,60.00
2024-05-09T09:43:24.329Z,57.40
2024-05-09T09:45:53.360Z,56.40
2024-05-09T09:48:22.350Z,55.30
2024-05-09T09:50:51.662Z,54.60
2024-05-09T09:53:22.920Z,55.00
2024-05-09T09:55:51.960Z,52.00
2024-05-09T09:58:19.252Z,54.70
2024-05-09T10:00:46.515Z,56.00
2024-05-09T10:03:13.635Z,49.20
2024-05-09T10:05:43.968Z,51.90
2024-05-09T10:08:13.804Z,45.80
2024-05-09T10:10:46.736Z,49.60
2024-05-09T10:13:14.048Z,49.20
2024-05-09T10:15:50.871Z,53.00
2024-05-09T10:18:27.015Z,52.10
2024-05-09T10:20:56.376Z,53.00
2024-05-09T10:23:28.128Z,52.50
2024-05-09T10:26:03.242Z,54.60
2024-05-09T10:28:32.354Z,53.30
2024-05-09T10:31:10.800Z,52.10
2024-05-09T10:33:47.774Z,53.00
2024-05-09T10:36:19.375Z,51.80
2024-05-09T10:38:46.475Z,53.50
2024-05-09T10:41:13.552Z,52.00
2024-05-09T10:43:41.474Z,52.60
2024-05-09T10:46:09.177Z,52.50
2024-05-09T10:48:37.461Z,51.10
2024-05-09T10:51:05.471Z,53.80
2024-05-09T10:53:39.661Z,51.20
2024-05-09T10:56:06.701Z,49.70
2024-05-09T10:58:33.595Z,48.00
2024-05-09T11:01:02.458Z,51.10
2024-05-09T11:03:31.362Z,51.40
2024-05-09T11:05:59.088Z,52.80
2024-05-09T11:08:26.333Z,50.40
2024-05-09T11:10:54.243Z,49.20
2024-05-09T11:13:32.051Z,50.70
2024-05-09T11:16:00.063Z,53.10
2024-05-09T11:18:32.293Z,46.10
2024-05-09T11:21:02.525Z,47.70
2024-05-09T11:23:30.637Z,46.80
2024-05-09T11:25:59.127Z,46.00
2024-05-09T11:28:28.514Z,48.30
2024-05-09T11:31:07.586Z,46.30
2024-05-09T11:33:39.599Z,46.80
2024-05-09T11:36:07.895Z,45.40
2024-05-09T11:38:34.946Z,47.10
2024-05-09T11:41:05.434Z,47.00
2024-05-09T11:43:32.914Z,44.70
2024-05-09T11:46:00.381Z,48.20
2024-05-09T11:48:27.910Z,47.70
2024-05-09T11:50:55.410Z,45.10
2024-05-09T11:53:22.477Z,47.80
2024-05-09T11:55:49.621Z,45.30
2024-05-09T11:58:18.162Z,47.00
2024-05-09T12:00:46.595Z,47.20
2024-05-09T12:03:13.943Z,47.20
2024-05-09T12:05:41.328Z,47.50
2024-05-09T12:08:08.432Z,47.20
2024-05-09T12:10:36.711Z,44.50
2024-05-09T12:13:06.582Z,43.50
2024-05-09T12:15:37.755Z,41.60
2024-05-09T12:18:06.243Z,45.30
2024-05-09T12:20:37.715Z,46.00
2024-05-09T12:23:08.907Z,42.40
2024-05-09T12:25:38.225Z,46.20
2024-05-09T12:28:05.908Z,46.40
2024-05-09T12:30:37.700Z,44.70
2024-05-09T12:33:12.171Z,45.40
2024-05-09T12:35:40.342Z,39.10
2024-05-09T12:38:07.300Z,41.50
2024-05-09T12:40:37.456Z,40.70
2024-05-09T12:43:10.273Z,42.20
2024-05-09T12:45:38.722Z,41.30
2024-05-09T12:48:08.538Z,41.20
2024-05-09T12:50:36.335Z,38.80
2024-05-09T12:53:04.709Z,36.90
2024-05-09T12:55:40.633Z,36.60
2024-05-09T12:58:18.350Z,35.80
2024-05-09T13:00:46.393Z,36.20
2024-05-09T13:03:13.949Z,39.10
2024-05-09T13:05:41.532Z,39.70
2024-05-09T13:08:08.891Z,42.20
2024-05-09T13:10:36.274Z,40.50
2024-05-09T13:13:03.462Z,37.40
2024-05-09T13:15:31.469Z,35.10
2024-05-09T13:18:01.970Z,35.10
2024-05-09T13:20:34.296Z,30.40
2024-05-09T13:23:08.044Z,30.00
2024-05-09T13:25:36.542Z,33.00
2024-05-09T13:28:04.573Z,32.10
2024-05-09T13:30:39.252Z,31.80
2024-05-09T13:33:10.376Z,35.40
2024-05-09T13:35:38.267Z,34.70
2024-05-09T13:38:05.517Z,33.00
2024-05-09T13:40:35.135Z,31.80
2024-05-09T13:43:06.491Z,32.40
2024-05-09T13:45:34.154Z,35.80
2024-05-09T13:48:06.503Z,36.90
2024-05-09T13:50:36.162Z,38.40
2024-05-09T13:53:06.000Z,40.00
2024-05-09T13:55:34.132Z,38.90
2024-05-09T13:58:01.773Z,39.30
2024-05-09T14:00:41.843Z,38.10
2024-05-09T14:03:14.598Z,33.60
2024-05-09T14:05:42.108Z,38.80
2024-05-09T14:08:09.415Z,33.60
2024-05-09T14:10:43.247Z,30.70
2024-05-09T14:13:10.439Z,32.00
2024-05-09T14:15:37.703Z,31.00
2024-05-09T14:18:05.080Z,31.60
2024-05-09T14:20:32.678Z,32.10
2024-05-09T14:23:01.032Z,33.50
2024-05-09T14:25:29.956Z,32.00
2024-05-09T14:27:59.960Z,29.70
2024-05-09T14:30:34.803Z,27.90
2024-05-09T14:33:06.057Z,31.40
2024-05-09T14:35:34.024Z,32.70
2024-05-09T14:38:01.035Z,29.40
2024-05-09T14:40:38.755Z,29.20
2024-05-09T14:43:14.871Z,30.80
2024-05-09T14:45:43.398Z,28.80
2024-05-09T14:48:14.999Z,30.40
2024-05-09T14:50:42.364Z,29.10
2024-05-09T14:53:13.738Z,28.70
2024-05-09T14:55:42.991Z,27.90
2024-05-09T14:58:11.526Z,28.50
2024-05-09T15:00:47.759Z,27.80
2024-05-09T15:03:21.609Z,29.60
2024-05-09T15:05:49.826Z,30.00
2024-05-09T15:08:17.988Z,30.00
2024-05-09T15:10:45.383Z,29.80
2024-05-09T15:13:14.575Z,30.60
2024-05-09T15:15:43.412Z,29.40
2024-05-09T15:18:10.467Z,27.50
2024-05-09T15:20:38.030Z,32.90
2024-05-09T15:23:07.060Z,30.60
2024-05-09T15:25:34.831Z,30.80
2024-05-09T15:28:02.009Z,29.40
2024-05-09T15:30:32.171Z,28.50
2024-05-09T15:33:03.124Z,30.70
2024-05-09T15:35:30.313Z,31.20
2024-05-09T15:37:57.255Z,29.30
2024-05-09T15:40:31.634Z,29.00
2024-05-09T15:43:06.523Z,28.90
2024-05-09T15:45:34.469Z,30.80
2024-05-09T15:48:02.819Z,29.30
2024-05-09T15:50:37.053Z,29.80
2024-05-09T15:53:08.533Z,30.00
2024-05-09T15:55:36.420Z,29.70
2024-05-09T15:58:04.556Z,28.10
2024-05-09T16:00:37.990Z,28.10
2024-05-09T16:03:13.747Z,29.10
2024-05-09T16:05:44.411Z,30.00
2024-05-09T16:08:12.699Z,30.10
2024-05-09T16:10:44.245Z,31.50
2024-05-09T16:13:12.558Z,28.50
2024-05-09T16:15:39.832Z,29.20
2024-05-09T16:18:07.425Z,29.20
2024-05-09T16:20:39.777Z,31.20
2024-05-09T16:23:09.561Z,31.60
2024-05-09T16:25:37.079Z,31.00
2024-05-09T16:28:08.702Z,31.80
2024-05-09T16:30:38.328Z,33.80
2024-05-09T16:33:06.232Z,31.10
2024-05-09T16:35:34.852Z,31.20
2024-05-09T16:38:02.894Z,29.30
2024-05-09T16:40:37.341Z,29.50
2024-05-09T16:43:07.997Z,28.60
2024-05-09T16:45:35.629Z,30.80
2024-05-09T16:48:03.294Z,31.80
2024-05-09T16:50:33.914Z,30.30
2024-05-09T16:53:03.754Z,30.60
2024-05-09T16:55:31.177Z,31.90
2024-05-09T16:57:58.431Z,32.30
2024-05-09T17:00:35.616Z,31.50
2024-05-09T17:03:09.637Z,31.90
2024-05-09T17:05:37.348Z,31.30
2024-05-09T17:08:05.147Z,32.70
2024-05-09T17:10:34.321Z,34.70
2024-05-09T17:13:04.443Z,36.30
2024-05-09T17:15:32.893Z,38.10
2024-05-09T17:18:01.030Z,39.00
2024-05-09T17:20:33.226Z,40.70
2024-05-09T17:23:03.887Z,39.60
2024-05-09T17:25:30.948Z,40.10
2024-05-09T17:28:05.057Z,40.60
2024-05-09T17:30:36.413Z,41.70
2024-05-09T17:33:06.882Z,43.00
2024-05-09T17:35:34.845Z,42.90
2024-05-09T17:38:01.988Z,41.50
2024-05-09T17:40:33.757Z,42.20
2024-05-09T17:43:04.482Z,43.50
2024-05-09T17:45:32.429Z,44.20
2024-05-09T17:48:00.119Z,43.50
2024-05-09T17:50:34.892Z,44.10
2024-05-09T17:53:04.514Z,44.70
2024-05-09T17:55:31.655Z,46.10
2024-05-09T17:57:58.757Z,44.50
2024-05-09T18:00:36.038Z,46.30
2024-05-09T18:03:06.828Z,47.20
2024-05-09T18:05:36.189Z,47.10
2024-05-09T18:08:04.026Z,46.30
2024-05-09T18:10:36.659Z,47.20
2024-05-09T18:13:07.127Z,47.90
2024-05-09T18:15:34.607Z,48.70
2024-05-09T18:18:02.475Z,50.60
2024-05-09T18:20:39.286Z,52.00
2024-05-09T18:23:10.868Z,53.00
2024-05-09T18:25:37.878Z,55.40
2024-05-09T18:28:05.830Z,58.50
2024-05-09T18:30:35.809Z,61.40
2024-05-09T18:33:06.489Z,63.90
2024-05-09T18:35:35.011Z,63.00
2024-05-09T18:38:02.236Z,63.60
2024-05-09T18:40:34.401Z,63.40
2024-05-09T18:43:05.844Z,63.80
2024-05-09T18:45:34.244Z,63.70
2024-05-09T18:48:01.459Z,63.70
2024-05-09T18:50:35.346Z,65.30
2024-05-09T18:53:10.669Z,69.60
2024-05-09T18:55:38.504Z,70.70
2024-05-09T18:58:05.633Z,71.60
2024-05-09T19:00:36.433Z,70.90
2024-05-09T19:03:11.793Z,70.60
2024-05-09T19:05:41.668Z,69.30
2024-05-09T19:08:09.520Z,69.30
2024-05-09T19:10:38.439Z,70.00
2024-05-09T19:13:10.188Z,71.70
2024-05-09T19:15:40.251Z,72.00
2024-05-09T19:18:08.021Z,72.50
2024-05-09T19:20:36.620Z,72.70
2024-05-09T19:23:05.868Z,73.40
2024-05-09T19:25:33.383Z,73.70
2024-05-09T19:28:01.132Z,74.40
2024-05-09T19:30:37.592Z,74.30
2024-05-09T19:33:08.572Z,74.50
2024-05-09T19:35:35.997Z,74.60
2024-05-09T19:38:03.118Z,75.00
2024-05-09T19:40:32.452Z,75.80
2024-05-09T19:43:02.571Z,76.30
2024-05-09T19:45:30.352Z,76.00
2024-05-09T19:47:57.529Z,75.90
2024-05-09T19:50:32.452Z,76.20
2024-05-09T19:53:07.575Z,76.70
2024-05-09T19:55:34.857Z,77.30
2024-05-09T19:58:07.090Z,78.00
2024-05-09T20:00:39.434Z,77.50
2024-05-09T20:03:09.608Z,78.00
2024-05-09T20:05:37.763Z,78.00
2024-05-09T20:08:05.777Z,78.00
2024-05-09T20:10:35.189Z,78.20
2024-05-09T20:13:04.588Z,79.00
2024-05-09T20:15:35.125Z,78.50
2024-05-09T20:18:02.595Z,78.90
2024-05-09T20:20:37.352Z,79.40
2024-05-09T20:23:08.755Z,79.40
2024-05-09T20:25:35.858Z,80.20
2024-05-09T20:28:03.050Z,80.70
2024-05-09T20:30:32.940Z,80.90
2024-05-09T20:33:07.272Z,80.60
2024-05-09T20:35:35.613Z,81.20
2024-05-09T20:38:03.725Z,81.40
2024-05-09T20:40:35.388Z,81.90
2024-05-09T20:43:05.841Z,81.30
2024-05-09T20:45:33.528Z,81.40
2024-05-09T20:48:00.833Z,81.80
2024-05-09T20:50:36.500Z,81.70
2024-05-09T20:53:14.899Z,81.40
2024-05-09T20:55:43.856Z,81.40
2024-05-09T20:58:11.880Z,82.20
2024-05-09T21:00:42.759Z,82.80
2024-05-09T21:03:13.420Z,82.00
2024-05-09T21:05:41.549Z,82.40
2024-05-09T21:08:09.292Z,82.40
2024-05-09T21:10:37.228Z,82.80
2024-05-09T21:13:05.672Z,83.00
2024-05-09T21:15:33.618Z,82.90
2024-05-09T21:18:00.645Z,83.10
2024-05-09T21:20:31.521Z,82.80
2024-05-09T21:23:00.626Z,83.50
2024-05-09T21:25:27.720Z,83.80
2024-05-09T21:27:54.809Z,83.30
2024-05-09T21:30:32.211Z,83.60
2024-05-09T21:33:12.882Z,83.80
2024-05-09T21:35:42.535Z,84.10
2024-05-09T21:38:09.520Z,84.00
2024-05-09T21:40:37.999Z,84.70
2024-05-09T21:43:07.483Z,84.40
2024-05-09T21:45:35.944Z,84.70
2024-05-09T21:48:06.975Z,83.80
2024-05-09T21:50:39.926Z,84.40
2024-05-09T21:53:09.887Z,84.30
2024-05-09T21:55:36.889Z,84.20
2024-05-09T21:58:04.176Z,84.10
2024-05-09T22:00:36.827Z,84.40
2024-05-09T22:03:10.284Z,83.50
2024-05-09T22:05:39.214Z,83.80
2024-05-09T22:08:06.741Z,83.80
2024-05-09T22:10:35.946Z,84.80
2024-05-09T22:13:05.646Z,84.60
2024-05-09T22:15:38.169Z,84.10
2024-05-09T22:18:08.040Z,83.90
2024-05-09T22:20:38.574Z,84.20
2024-05-09T22:23:07.654Z,84.50
2024-05-09T22:25:35.157Z,84.20
2024-05-09T22:28:03.256Z,84.60
2024-05-09T22:30:36.355Z,85.20
2024-05-09T22:33:07.707Z,85.10
2024-05-09T22:35:34.852Z,84.60
2024-05-09T22:38:03.697Z,85.10
2024-05-09T22:40:39.149Z,85.40
2024-05-09T22:43:16.212Z,85.80
2024-05-09T22:45:43.196Z,85.80
2024-05-09T22:48:10.312Z,86.10
2024-05-09T22:50:37.345Z,85.70
2024-05-09T22:53:04.410Z,85.70
2024-05-09T22:55:31.290Z,85.10
2024-05-09T22:57:58.302Z,86.10
2024-05-09T23:00:31.414Z,87.10
2024-05-09T23:03:02.698Z,86.70
2024-05-09T23:05:31.869Z,86.40
2024-05-09T23:08:00.381Z,86.20
2024-05-09T23:10:32.535Z,86.40
2024-05-09T23:13:04.000Z,85.30
2024-05-09T23:15:31.094Z,85.70
2024-05-09T23:17:58.552Z,86.30
2024-05-09T23:20:35.877Z,86.40
2024-05-09T23:23:10.472Z,86.10
2024-05-09T23:25:38.712Z,86.10
2024-05-09T23:28:06.347Z,86.30
2024-05-09T23:30:38.189Z,86.20
2024-05-09T23:33:08.503Z,86.00
2024-05-09T23:35:35.780Z,85.60
2024-05-09T23:38:03.002Z,86.30
2024-05-09T23:40:38.292Z,86.60
2024-05-09T23:43:09.080Z,85.70
2024-05-09T23:45:36.505Z,86.00
2024-05-09T23:48:04.012Z,86.30
2024-05-09T23:50:35.593Z,86.70
2024-05-09T23:53:06.414Z,86.60
2024-05-09T23:55:34.154Z,87.00
2024-05-09T23:58:01.230Z,87.60
